createdAt,value
2022-07-29T00:00:13.787Z,22.38
2022-07-29T00:01:19.168Z,22.41
2022-07-29T00:02:21.447Z,22.43
2022-07-29T00:03:23.181Z,22.48
2022-07-29T00:04:24.925Z,22.47
2022-07-29T00:05:26.575Z,22.49
2022-07-29T00:06:28.254Z,22.55
2022-07-29T00:07:29.886Z,22.58
2022-07-29T00:08:31.498Z,22.67
2022-07-29T00:09:33.202Z,22.71
2022-07-29T00:10:43.606Z,22.76
2022-07-29T00:11:45.290Z,22.81
2022-07-29T00:12:46.909Z,22.86
2022-07-29T00:13:51.045Z,22.91
2022-07-29T00:14:53.889Z,22.96
2022-07-29T00:15:55.526Z,22.98
2022-07-29T00:16:57.239Z,23.00
2022-07-29T00:17:58.872Z,23.05
2022-07-29T00:19:02.262Z,23.05
2022-07-29T00:20:05.095Z,23.10
2022-07-29T00:21:06.787Z,23.20
2022-07-29T00:22:08.401Z,23.26
2022-07-29T00:23:13.681Z,23.36
2022-07-29T00:24:15.858Z,23.42
2022-07-29T00:25:17.775Z,23.45
2022-07-29T00:26:19.378Z,23.50
2022-07-29T00:27:21.087Z,23.50
2022-07-29T00:28:22.747Z,23.54
2022-07-29T00:29:34.104Z,23.56
2022-07-29T00:30:36.221Z,23.54
2022-07-29T00:31:38.020Z,23.56
2022-07-29T00:32:39.745Z,23.61
2022-07-29T00:33:41.617Z,23.64
2022-07-29T00:35:01.698Z,23.67
2022-07-29T00:36:03.442Z,23.66
2022-07-29T00:37:05.105Z,23.70
2022-07-29T00:38:09.476Z,23.71
2022-07-29T00:39:11.091Z,23.75
2022-07-29T00:40:12.930Z,23.78
2022-07-29T00:41:14.586Z,23.78
2022-07-29T00:42:17.385Z,23.78
2022-07-29T00:43:19.124Z,23.77
2022-07-29T00:44:21.187Z,23.77
2022-07-29T00:45:25.629Z,23.78
2022-07-29T00:46:27.257Z,23.75
2022-07-29T00:47:28.895Z,23.77
2022-07-29T00:48:30.574Z,23.77
2022-07-29T00:49:32.218Z,23.74
2022-07-29T00:50:33.905Z,23.73
2022-07-29T00:51:38.555Z,23.73
2022-07-29T00:52:41.309Z,23.73
2022-07-29T00:53:43.266Z,23.73
2022-07-29T00:54:45.142Z,23.73
2022-07-29T00:55:46.910Z,23.71
2022-07-29T00:56:48.548Z,23.73
2022-07-29T00:57:50.213Z,23.70
2022-07-29T00:58:52.609Z,23.66
2022-07-29T00:59:54.503Z,23.67
2022-07-29T01:00:56.293Z,23.67
2022-07-29T01:01:58.025Z,23.69
2022-07-29T01:02:59.689Z,23.67
2022-07-29T01:04:01.312Z,23.64
2022-07-29T01:05:06.963Z,23.67
2022-07-29T01:06:08.585Z,23.66
2022-07-29T01:07:10.221Z,23.64
2022-07-29T01:08:12.584Z,23.63
2022-07-29T01:09:14.321Z,23.64
2022-07-29T01:10:16.588Z,23.64
2022-07-29T01:11:18.403Z,23.63
2022-07-29T01:12:25.702Z,23.64
2022-07-29T01:13:27.337Z,23.66
2022-07-29T01:14:28.973Z,23.70
2022-07-29T01:15:30.651Z,23.67
2022-07-29T01:16:33.511Z,23.69
2022-07-29T01:18:04.037Z,23.70
2022-07-29T01:19:14.567Z,23.69
2022-07-29T01:20:21.133Z,23.69
2022-07-29T01:21:35.361Z,23.71
2022-07-29T01:22:37.599Z,23.73
2022-07-29T01:23:45.096Z,23.71
2022-07-29T01:25:10.822Z,23.70
2022-07-29T01:26:32.921Z,23.71
2022-07-29T01:27:46.532Z,23.69
2022-07-29T01:29:07.598Z,23.71
2022-07-29T01:30:10.020Z,23.70
2022-07-29T01:31:24.346Z,23.70
2022-07-29T01:32:29.468Z,23.69
2022-07-29T01:33:50.931Z,23.69
2022-07-29T01:35:04.574Z,23.70
2022-07-29T01:36:11.284Z,23.70
2022-07-29T01:37:27.753Z,23.64
2022-07-29T01:38:29.386Z,23.66
2022-07-29T01:39:33.415Z,23.64
2022-07-29T01:40:54.174Z,23.61
2022-07-29T01:42:03.063Z,23.63
2022-07-29T01:43:10.730Z,23.66
2022-07-29T01:44:21.286Z,23.64
2022-07-29T01:45:26.833Z,23.69
2022-07-29T01:46:51.195Z,23.67
2022-07-29T01:48:24.094Z,23.63
2022-07-29T01:49:28.671Z,23.64
2022-07-29T01:50:39.029Z,23.57
2022-07-29T01:52:00.192Z,23.59
2022-07-29T01:53:06.365Z,23.60
2022-07-29T01:54:13.771Z,23.60
2022-07-29T01:55:16.547Z,23.60
2022-07-29T01:56:18.192Z,23.59
2022-07-29T01:57:19.853Z,23.59
2022-07-29T01:58:21.487Z,23.61
2022-07-29T01:59:24.387Z,23.57
2022-07-29T02:00:26.473Z,23.59
2022-07-29T02:01:28.174Z,23.61
2022-07-29T02:02:29.900Z,23.59
2022-07-29T02:03:31.554Z,23.61
2022-07-29T02:04:33.228Z,23.64
2022-07-29T02:05:34.928Z,23.60
2022-07-29T02:06:37.419Z,23.57
2022-07-29T02:07:39.120Z,23.56
2022-07-29T02:08:40.749Z,23.53
2022-07-29T02:09:42.485Z,23.51
2022-07-29T02:10:44.230Z,23.53
2022-07-29T02:11:52.631Z,23.51
2022-07-29T02:12:55.293Z,23.50
2022-07-29T02:13:57.161Z,23.47
2022-07-29T02:14:59.232Z,23.47
2022-07-29T02:16:01.023Z,23.45
2022-07-29T02:17:02.915Z,23.46
2022-07-29T02:18:08.317Z,23.45
2022-07-29T02:19:10.210Z,23.43
2022-07-29T02:20:12.106Z,23.42
2022-07-29T02:21:15.090Z,23.45
2022-07-29T02:22:17.928Z,23.45
2022-07-29T02:23:21.685Z,23.42
2022-07-29T02:24:24.587Z,23.40
2022-07-29T02:25:37.543Z,23.39
2022-07-29T02:26:40.730Z,23.40
2022-07-29T02:27:42.407Z,23.39
2022-07-29T02:28:44.022Z,23.38
2022-07-29T02:29:46.701Z,23.36
2022-07-29T02:30:48.371Z,23.40
2022-07-29T02:31:50.628Z,23.36
2022-07-29T02:32:52.320Z,23.36
2022-07-29T02:33:54.084Z,23.34
2022-07-29T02:34:55.966Z,23.33
2022-07-29T02:35:57.632Z,23.34
2022-07-29T02:36:59.331Z,23.34
2022-07-29T02:38:19.318Z,23.31
2022-07-29T02:39:20.947Z,23.31
2022-07-29T02:40:22.634Z,23.30
2022-07-29T02:41:27.106Z,23.30
2022-07-29T02:42:31.398Z,23.27
2022-07-29T02:43:33.251Z,23.27
2022-07-29T02:44:35.463Z,23.26
2022-07-29T02:45:37.084Z,23.24
2022-07-29T02:46:39.284Z,23.23
2022-07-29T02:47:48.990Z,23.20
2022-07-29T02:49:00.867Z,23.18
2022-07-29T02:50:16.619Z,23.16
2022-07-29T02:51:43.484Z,23.15
2022-07-29T02:52:53.861Z,23.13
2022-07-29T02:53:58.304Z,23.10
2022-07-29T02:55:20.487Z,23.06
2022-07-29T02:56:25.279Z,23.05
2022-07-29T02:57:35.297Z,23.00
2022-07-29T02:58:58.275Z,23.02
2022-07-29T03:00:00.653Z,22.96
2022-07-29T03:01:09.908Z,22.99
2022-07-29T03:02:11.668Z,22.99
2022-07-29T03:03:14.209Z,22.99
2022-07-29T03:04:16.136Z,23.02
2022-07-29T03:05:19.513Z,22.99
2022-07-29T03:06:30.945Z,22.99
2022-07-29T03:07:40.268Z,22.99
2022-07-29T03:08:42.045Z,22.99
2022-07-29T03:09:43.655Z,22.98
2022-07-29T03:10:46.701Z,22.96
2022-07-29T03:11:50.646Z,22.96
2022-07-29T03:12:52.525Z,22.96
2022-07-29T03:13:54.126Z,22.96
2022-07-29T03:14:55.709Z,22.92
2022-07-29T03:15:58.779Z,22.92
2022-07-29T03:17:00.467Z,22.91
2022-07-29T03:18:02.144Z,22.91
2022-07-29T03:19:04.778Z,22.86
2022-07-29T03:20:08.269Z,22.86
2022-07-29T03:21:09.927Z,22.88
2022-07-29T03:22:11.653Z,22.86
2022-07-29T03:23:13.269Z,22.86
2022-07-29T03:24:35.613Z,22.86
2022-07-29T03:25:37.208Z,22.86
2022-07-29T03:26:38.832Z,22.86
2022-07-29T03:27:40.782Z,22.86
2022-07-29T03:28:42.385Z,22.85
2022-07-29T03:29:49.676Z,22.84
2022-07-29T03:30:52.393Z,22.85
2022-07-29T03:31:54.287Z,22.82
2022-07-29T03:32:56.676Z,22.82
2022-07-29T03:34:00.567Z,22.82
2022-07-29T03:35:02.433Z,22.84
2022-07-29T03:36:04.117Z,22.81
2022-07-29T03:37:07.147Z,22.84
2022-07-29T03:38:09.082Z,22.84
2022-07-29T03:39:10.790Z,22.81
2022-07-29T03:40:14.380Z,22.82
2022-07-29T03:41:15.992Z,22.84
2022-07-29T03:42:17.731Z,22.79
2022-07-29T03:43:19.411Z,22.81
2022-07-29T03:44:21.024Z,22.81
2022-07-29T03:45:22.690Z,22.82
2022-07-29T03:46:24.571Z,22.81
2022-07-29T03:47:50.307Z,22.76
2022-07-29T03:48:50.048Z,22.73
2022-07-29T03:49:51.842Z,22.76
2022-07-29T03:50:53.541Z,22.76
2022-07-29T03:51:55.463Z,22.76
2022-07-29T03:52:57.177Z,22.78
2022-07-29T03:53:58.799Z,22.81
2022-07-29T03:55:00.466Z,22.79
2022-07-29T03:56:02.191Z,22.81
2022-07-29T03:57:04.086Z,22.82
2022-07-29T03:58:05.691Z,22.84
2022-07-29T03:59:07.449Z,22.81
2022-07-29T04:00:09.601Z,22.81
2022-07-29T04:01:11.271Z,22.79
2022-07-29T04:02:14.446Z,22.82
2022-07-29T04:03:16.647Z,22.81
2022-07-29T04:04:18.718Z,22.82
2022-07-29T04:05:20.681Z,22.82
2022-07-29T04:06:22.348Z,22.85
2022-07-29T04:07:23.974Z,22.85
2022-07-29T04:08:25.583Z,22.85
2022-07-29T04:09:27.247Z,22.84
2022-07-29T04:10:31.644Z,22.85
2022-07-29T04:11:33.983Z,22.86
2022-07-29T04:12:55.571Z,22.88
2022-07-29T04:13:57.178Z,22.89
2022-07-29T04:14:58.821Z,22.88
2022-07-29T04:16:00.665Z,22.89
2022-07-29T04:17:02.902Z,22.88
2022-07-29T04:18:04.542Z,22.91
2022-07-29T04:19:06.381Z,22.88
2022-07-29T04:20:08.505Z,22.89
2022-07-29T04:21:10.146Z,22.88
2022-07-29T04:22:11.763Z,22.92
2022-07-29T04:23:13.414Z,22.91
2022-07-29T04:24:15.515Z,22.94
2022-07-29T04:25:17.369Z,22.95
2022-07-29T04:26:19.450Z,22.99
2022-07-29T04:27:21.142Z,22.99
2022-07-29T04:28:22.792Z,23.03
2022-07-29T04:29:24.443Z,23.06
2022-07-29T04:30:26.070Z,23.08
2022-07-29T04:31:27.724Z,23.08
2022-07-29T04:32:29.457Z,23.12
2022-07-29T04:33:31.075Z,23.15
2022-07-29T04:34:32.667Z,23.18
2022-07-29T04:35:38.910Z,23.18
2022-07-29T04:36:51.763Z,23.24
2022-07-29T04:37:53.519Z,23.30
2022-07-29T04:38:55.126Z,23.30
2022-07-29T04:39:56.737Z,23.36
2022-07-29T04:40:58.334Z,23.40
2022-07-29T04:42:00.013Z,23.45
2022-07-29T04:43:03.346Z,23.47
2022-07-29T04:44:12.373Z,23.54
2022-07-29T04:45:14.139Z,23.57
2022-07-29T04:46:15.863Z,23.60
2022-07-29T04:47:17.534Z,23.64
2022-07-29T04:48:19.204Z,23.73
2022-07-29T04:49:20.855Z,23.75
2022-07-29T04:50:22.510Z,23.80
2022-07-29T04:51:24.193Z,23.87
2022-07-29T04:52:25.846Z,23.88
2022-07-29T04:53:27.542Z,23.87
2022-07-29T04:54:29.171Z,23.93
2022-07-29T04:55:30.894Z,23.94
2022-07-29T04:56:32.581Z,23.98
2022-07-29T04:57:34.193Z,24.01
2022-07-29T04:58:36.328Z,24.05
2022-07-29T04:59:37.927Z,24.04
2022-07-29T05:00:40.250Z,24.08
2022-07-29T05:01:41.906Z,24.05
2022-07-29T05:02:44.595Z,24.12
2022-07-29T05:03:46.509Z,24.15
2022-07-29T05:04:48.118Z,24.20
2022-07-29T05:05:49.745Z,24.24
2022-07-29T05:06:51.332Z,24.24
2022-07-29T05:07:52.917Z,24.28
2022-07-29T05:08:54.567Z,24.33
2022-07-29T05:09:57.994Z,24.33
2022-07-29T05:11:11.632Z,24.36
2022-07-29T05:12:14.188Z,24.42
2022-07-29T05:13:15.780Z,24.45
2022-07-29T05:14:17.926Z,24.51
2022-07-29T05:15:19.818Z,24.52
2022-07-29T05:16:22.426Z,24.58
2022-07-29T05:17:24.231Z,24.65
2022-07-29T05:18:26.637Z,24.63
2022-07-29T05:19:28.347Z,24.68
2022-07-29T05:20:30.540Z,24.71
2022-07-29T05:21:32.234Z,24.76
2022-07-29T05:22:33.855Z,24.76
2022-07-29T05:23:35.475Z,24.86
2022-07-29T05:24:37.128Z,24.93
2022-07-29T05:25:44.049Z,24.97
2022-07-29T05:26:46.618Z,24.99
2022-07-29T05:27:48.235Z,25.03
2022-07-29T05:28:52.740Z,25.07
2022-07-29T05:29:54.401Z,25.10
2022-07-29T05:30:56.080Z,25.12
2022-07-29T05:31:57.742Z,25.16
2022-07-29T05:32:59.347Z,25.16
2022-07-29T05:34:01.143Z,25.17
2022-07-29T05:35:02.788Z,25.19
2022-07-29T05:36:08.311Z,25.20
2022-07-29T05:37:10.173Z,25.23
2022-07-29T05:38:11.774Z,25.28
2022-07-29T05:39:14.069Z,25.33
2022-07-29T05:40:15.967Z,25.40
2022-07-29T05:41:17.810Z,25.44
2022-07-29T05:42:19.419Z,25.47
2022-07-29T05:43:21.991Z,25.51
2022-07-29T05:44:25.381Z,25.53
2022-07-29T05:45:27.170Z,25.61
2022-07-29T05:46:29.264Z,25.64
2022-07-29T05:47:31.500Z,25.65
2022-07-29T05:48:33.407Z,25.68
2022-07-29T05:49:35.075Z,25.73
2022-07-29T05:50:36.716Z,25.75
2022-07-29T05:51:46.050Z,25.81
2022-07-29T05:52:47.670Z,25.84
2022-07-29T05:53:51.514Z,25.85
2022-07-29T05:54:53.185Z,25.88
2022-07-29T05:55:54.829Z,25.92
2022-07-29T05:56:56.832Z,25.89
2022-07-29T05:57:58.430Z,25.94
2022-07-29T05:59:00.035Z,25.99
2022-07-29T06:00:01.677Z,26.04
2022-07-29T06:01:03.636Z,26.11
2022-07-29T06:02:06.338Z,26.15
2022-07-29T06:03:08.039Z,26.16
2022-07-29T06:04:09.699Z,26.24
2022-07-29T06:05:17.295Z,26.22
2022-07-29T06:06:19.012Z,26.29
2022-07-29T06:07:20.959Z,26.25
2022-07-29T06:08:22.584Z,26.28
2022-07-29T06:09:24.365Z,26.25
2022-07-29T06:10:26.311Z,26.33
2022-07-29T06:11:28.836Z,26.26
2022-07-29T06:12:30.505Z,26.26
2022-07-29T06:13:32.264Z,26.26
2022-07-29T06:14:33.925Z,26.22
2022-07-29T06:15:35.628Z,26.18
2022-07-29T06:16:37.462Z,26.14
2022-07-29T06:17:39.184Z,26.12
2022-07-29T06:19:00.793Z,26.09
2022-07-29T06:20:03.798Z,26.08
2022-07-29T06:21:09.710Z,26.06
2022-07-29T06:22:11.432Z,26.12
2022-07-29T06:23:13.061Z,26.21
2022-07-29T06:24:15.371Z,26.26
2022-07-29T06:25:17.413Z,26.28
2022-07-29T06:26:19.020Z,26.35
2022-07-29T06:27:32.599Z,26.35
2022-07-29T06:28:34.239Z,26.42
2022-07-29T06:29:35.964Z,26.59
2022-07-29T06:30:37.606Z,26.72
2022-07-29T06:31:39.571Z,26.84
2022-07-29T06:32:43.164Z,27.03
2022-07-29T06:33:45.076Z,27.21
2022-07-29T06:34:48.933Z,27.38
2022-07-29T06:35:52.429Z,27.52
2022-07-29T06:36:54.968Z,27.66
2022-07-29T06:37:56.566Z,27.75
2022-07-29T06:39:01.283Z,27.86
2022-07-29T06:40:24.670Z,27.85
2022-07-29T06:41:27.086Z,27.88
2022-07-29T06:42:28.731Z,27.88
2022-07-29T06:43:50.071Z,27.85
2022-07-29T06:44:52.849Z,27.79
2022-07-29T06:45:54.572Z,27.71
2022-07-29T06:46:56.822Z,27.65
2022-07-29T06:47:58.505Z,27.57
2022-07-29T06:49:02.224Z,27.52
2022-07-29T06:50:04.958Z,27.50
2022-07-29T06:51:09.598Z,27.57
2022-07-29T06:52:11.271Z,27.61
2022-07-29T06:53:12.901Z,27.66
2022-07-29T06:54:14.806Z,27.66
2022-07-29T06:55:24.823Z,27.71
2022-07-29T06:56:27.072Z,27.77
2022-07-29T06:57:28.765Z,27.77
2022-07-29T06:58:30.635Z,27.82
2022-07-29T06:59:35.790Z,27.79
2022-07-29T07:00:38.141Z,27.88
2022-07-29T07:01:41.121Z,27.85
2022-07-29T07:02:42.935Z,27.92
2022-07-29T07:03:44.579Z,27.92
2022-07-29T07:04:46.196Z,28.01
2022-07-29T07:05:51.015Z,28.08
2022-07-29T07:06:52.696Z,28.23
2022-07-29T07:07:54.351Z,28.32
2022-07-29T07:08:55.946Z,28.33
2022-07-29T07:09:57.556Z,28.35
2022-07-29T07:10:59.255Z,28.39
2022-07-29T07:12:00.924Z,28.40
2022-07-29T07:13:03.736Z,28.40
2022-07-29T07:14:05.375Z,28.42
2022-07-29T07:15:07.407Z,28.46
2022-07-29T07:16:09.209Z,28.46
2022-07-29T07:17:10.975Z,28.52
2022-07-29T07:18:12.587Z,28.52
2022-07-29T07:19:14.287Z,28.42
2022-07-29T07:20:17.003Z,28.42
2022-07-29T07:21:19.524Z,28.50
2022-07-29T07:22:21.428Z,28.53
2022-07-29T07:23:23.042Z,28.63
2022-07-29T07:24:24.673Z,28.65
2022-07-29T07:25:26.583Z,28.78
2022-07-29T07:26:28.269Z,28.84
2022-07-29T07:27:30.737Z,28.90
2022-07-29T07:28:32.456Z,28.94
2022-07-29T07:29:34.065Z,28.94
2022-07-29T07:30:36.005Z,28.98
2022-07-29T07:31:38.144Z,29.01
2022-07-29T07:32:39.813Z,29.05
2022-07-29T07:33:41.411Z,29.10
2022-07-29T07:34:44.232Z,29.05
2022-07-29T07:35:45.844Z,29.07
2022-07-29T07:36:47.448Z,29.07
2022-07-29T07:37:49.114Z,29.07
2022-07-29T07:38:50.799Z,29.08
2022-07-29T07:39:53.028Z,29.11
2022-07-29T07:40:54.640Z,29.11
2022-07-29T07:41:56.274Z,29.08
2022-07-29T07:42:57.962Z,29.11
2022-07-29T07:44:00.101Z,29.12
2022-07-29T07:45:13.698Z,29.14
2022-07-29T07:46:17.716Z,29.14
2022-07-29T07:47:20.917Z,29.10
2022-07-29T07:48:23.869Z,29.10
2022-07-29T07:49:25.604Z,29.10
2022-07-29T07:50:27.333Z,29.11
2022-07-29T07:51:29.259Z,29.10
2022-07-29T07:52:30.875Z,29.14
2022-07-29T07:53:32.691Z,29.21
2022-07-29T07:54:34.346Z,29.26
2022-07-29T07:56:08.947Z,29.31
2022-07-29T07:57:02.521Z,29.35
2022-07-29T07:58:04.144Z,29.36
2022-07-29T07:59:05.803Z,29.36
2022-07-29T08:00:07.888Z,29.41
2022-07-29T08:01:09.975Z,29.36
2022-07-29T08:02:11.848Z,29.36
2022-07-29T08:03:16.945Z,29.32
2022-07-29T08:04:22.224Z,29.36
2022-07-29T08:05:28.496Z,29.42
2022-07-29T08:06:30.112Z,29.44
2022-07-29T08:07:31.706Z,29.48
2022-07-29T08:08:33.335Z,29.49
2022-07-29T08:09:35.487Z,29.51
2022-07-29T08:10:57.154Z,29.51
2022-07-29T08:11:59.528Z,29.56
2022-07-29T08:13:04.243Z,29.61
2022-07-29T08:14:05.863Z,29.61
2022-07-29T08:15:08.767Z,29.59
2022-07-29T08:16:14.201Z,29.59
2022-07-29T08:17:16.015Z,29.59
2022-07-29T08:18:17.614Z,29.46
2022-07-29T08:19:19.388Z,29.52
2022-07-29T08:20:21.150Z,29.54
2022-07-29T08:21:22.785Z,29.59
2022-07-29T08:22:24.395Z,29.62
2022-07-29T08:23:32.816Z,29.65
2022-07-29T08:24:53.484Z,29.70
2022-07-29T08:25:57.361Z,29.82
2022-07-29T08:26:59.213Z,29.90
2022-07-29T08:28:00.814Z,29.93
2022-07-29T08:29:02.449Z,29.97
2022-07-29T08:30:04.601Z,29.92
2022-07-29T08:31:06.551Z,29.99
2022-07-29T08:32:08.309Z,29.95
2022-07-29T08:33:10.030Z,29.99
2022-07-29T08:34:11.718Z,30.03
2022-07-29T08:35:13.344Z,30.05
2022-07-29T08:36:14.967Z,30.06
2022-07-29T08:37:17.467Z,30.12
2022-07-29T08:38:19.065Z,30.13
2022-07-29T08:39:20.675Z,30.16
2022-07-29T08:40:32.574Z,30.24
2022-07-29T08:41:34.487Z,30.31
2022-07-29T08:42:36.484Z,30.33
2022-07-29T08:43:39.251Z,30.34
2022-07-29T08:44:40.901Z,30.34
2022-07-29T08:45:47.993Z,30.27
2022-07-29T08:46:50.543Z,30.31
2022-07-29T08:47:52.224Z,30.31
2022-07-29T08:48:53.947Z,30.38
2022-07-29T08:49:55.630Z,30.36
2022-07-29T08:50:57.680Z,30.37
2022-07-29T08:51:59.609Z,30.41
2022-07-29T08:53:01.426Z,30.41
2022-07-29T08:54:03.345Z,30.40
2022-07-29T08:55:08.722Z,30.43
2022-07-29T08:56:18.284Z,30.48
2022-07-29T08:57:20.641Z,30.51
2022-07-29T08:58:24.626Z,30.57
2022-07-29T08:59:28.172Z,30.57
2022-07-29T09:00:32.881Z,30.58
2022-07-29T09:01:35.646Z,30.63
2022-07-29T09:02:42.738Z,30.67
2022-07-29T09:03:45.128Z,30.75
2022-07-29T09:04:46.792Z,30.82
2022-07-29T09:05:48.538Z,30.82
2022-07-29T09:06:51.311Z,30.91
2022-07-29T09:07:53.009Z,30.92
2022-07-29T09:08:55.942Z,30.99
2022-07-29T09:09:57.608Z,31.05
2022-07-29T09:11:01.035Z,31.02
2022-07-29T09:12:06.998Z,31.05
2022-07-29T09:13:09.199Z,31.09
2022-07-29T09:14:12.653Z,31.07
2022-07-29T09:15:14.263Z,31.09
2022-07-29T09:16:26.857Z,31.09
2022-07-29T09:17:48.314Z,31.16
2022-07-29T09:18:50.085Z,31.21
2022-07-29T09:19:53.456Z,31.23
2022-07-29T09:21:21.165Z,31.25
2022-07-29T09:22:30.381Z,31.28
2022-07-29T09:23:32.085Z,31.32
2022-07-29T09:24:47.881Z,31.32
2022-07-29T09:25:49.501Z,31.35
2022-07-29T09:26:51.241Z,31.40
2022-07-29T09:27:53.010Z,31.43
2022-07-29T09:28:54.670Z,31.47
2022-07-29T09:29:58.242Z,31.49
2022-07-29T09:31:00.142Z,31.42
2022-07-29T09:32:01.800Z,31.42
2022-07-29T09:33:04.078Z,31.42
2022-07-29T09:34:06.118Z,31.43
2022-07-29T09:35:20.718Z,31.45
2022-07-29T09:36:22.776Z,31.45
2022-07-29T09:37:28.661Z,31.46
2022-07-29T09:38:30.286Z,31.45
2022-07-29T09:39:35.516Z,31.46
2022-07-29T09:40:37.147Z,31.47
2022-07-29T09:41:47.111Z,31.50
2022-07-29T09:42:48.862Z,31.49
2022-07-29T09:43:57.397Z,31.58
2022-07-29T09:44:59.104Z,31.58
2022-07-29T09:46:13.209Z,31.63
2022-07-29T09:47:15.260Z,31.70
2022-07-29T09:48:18.870Z,31.79
2022-07-29T09:49:20.969Z,31.82
2022-07-29T09:50:25.069Z,31.92
2022-07-29T09:51:38.154Z,31.93
2022-07-29T09:52:46.549Z,31.94
2022-07-29T09:53:48.189Z,31.96
2022-07-29T09:54:49.889Z,31.94
2022-07-29T09:55:51.951Z,32.00
2022-07-29T09:56:54.051Z,32.04
2022-07-29T09:57:55.894Z,32.00
2022-07-29T09:59:06.899Z,31.93
2022-07-29T10:00:13.729Z,31.92
2022-07-29T10:01:16.107Z,31.93
2022-07-29T10:02:22.123Z,31.94
2022-07-29T10:03:25.606Z,31.94
2022-07-29T10:04:43.153Z,31.84
2022-07-29T10:05:44.997Z,31.80
2022-07-29T10:07:04.969Z,31.84
2022-07-29T10:08:07.067Z,31.93
2022-07-29T10:09:11.967Z,31.94
2022-07-29T10:10:20.354Z,32.06
2022-07-29T10:11:22.043Z,32.11
2022-07-29T10:12:23.874Z,32.17
2022-07-29T10:13:25.485Z,32.16
2022-07-29T10:14:27.104Z,32.14
2022-07-29T10:15:30.596Z,32.20
2022-07-29T10:16:35.099Z,32.19
2022-07-29T10:17:36.885Z,32.20
2022-07-29T10:18:44.567Z,32.21
2022-07-29T10:19:46.598Z,32.27
2022-07-29T10:20:48.236Z,32.27
2022-07-29T10:21:49.848Z,32.24
2022-07-29T10:22:53.737Z,32.28
2022-07-29T10:23:55.815Z,32.28
2022-07-29T10:25:02.783Z,32.34
2022-07-29T10:26:04.933Z,32.35
2022-07-29T10:27:08.109Z,32.44
2022-07-29T10:28:14.433Z,32.45
2022-07-29T10:29:17.794Z,32.51
2022-07-29T10:30:19.510Z,32.55
2022-07-29T10:31:27.635Z,32.61
2022-07-29T10:32:37.729Z,32.64
2022-07-29T10:33:57.944Z,32.67
2022-07-29T10:35:47.626Z,32.70
2022-07-29T10:37:08.405Z,32.72
2022-07-29T10:38:32.007Z,32.78
2022-07-29T10:39:51.463Z,32.75
2022-07-29T10:41:19.339Z,32.76
2022-07-29T10:42:29.619Z,32.82
2022-07-29T10:43:38.927Z,32.71
2022-07-29T10:44:44.069Z,32.62
2022-07-29T10:45:47.931Z,32.58
2022-07-29T10:46:52.412Z,32.61
2022-07-29T10:48:09.883Z,32.51
2022-07-29T10:49:16.240Z,32.47
2022-07-29T10:50:18.003Z,32.41
2022-07-29T10:51:19.817Z,32.44
2022-07-29T10:52:30.123Z,32.41
2022-07-29T10:53:51.671Z,32.47
2022-07-29T10:54:54.708Z,32.57
2022-07-29T10:55:56.326Z,32.64
2022-07-29T10:56:58.067Z,32.72
2022-07-29T10:58:31.875Z,32.79
2022-07-29T11:00:56.317Z,32.71
2022-07-29T11:02:27.964Z,32.70
2022-07-29T11:03:50.801Z,32.61
2022-07-29T11:04:53.910Z,32.62
2022-07-29T11:05:56.803Z,32.64
2022-07-29T11:07:01.846Z,32.67
2022-07-29T11:08:19.695Z,32.71
2022-07-29T11:09:25.780Z,32.75
2022-07-29T11:10:40.107Z,32.68
2022-07-29T11:11:43.978Z,32.64
2022-07-29T11:12:53.212Z,32.58
2022-07-29T11:13:57.053Z,32.57
2022-07-29T11:15:00.277Z,32.62
2022-07-29T11:16:02.215Z,32.62
2022-07-29T11:17:07.475Z,32.70
2022-07-29T11:18:15.049Z,32.72
2022-07-29T11:19:26.386Z,32.70
2022-07-29T11:20:49.701Z,32.57
2022-07-29T11:22:00.459Z,32.62
2022-07-29T11:23:02.743Z,32.70
2022-07-29T11:24:29.287Z,32.78
2022-07-29T11:25:51.070Z,32.89
2022-07-29T11:27:13.482Z,32.86
2022-07-29T11:28:22.780Z,32.89
2022-07-29T11:29:26.890Z,32.91
2022-07-29T11:31:08.129Z,32.95
2022-07-29T11:32:15.731Z,32.94
2022-07-29T11:33:54.695Z,32.79
2022-07-29T11:35:37.047Z,32.65
2022-07-29T11:37:15.209Z,32.60
2022-07-29T11:38:31.772Z,32.57
2022-07-29T11:39:36.596Z,32.57
2022-07-29T11:40:39.288Z,32.55
2022-07-29T11:41:44.204Z,32.55
2022-07-29T11:42:46.636Z,32.54
2022-07-29T11:44:01.462Z,32.53
2022-07-29T11:45:42.818Z,32.60
2022-07-29T11:46:49.888Z,32.72
2022-07-29T11:47:54.059Z,32.75
2022-07-29T11:48:55.857Z,32.79
2022-07-29T11:49:59.940Z,32.82
2022-07-29T11:51:03.120Z,32.79
2022-07-29T11:52:05.578Z,32.86
2022-07-29T11:53:14.325Z,32.92
2022-07-29T11:54:16.397Z,32.96
2022-07-29T11:55:23.566Z,33.05
2022-07-29T11:56:33.981Z,33.15
2022-07-29T11:57:36.820Z,33.19
2022-07-29T11:58:39.926Z,33.26
2022-07-29T11:59:43.416Z,33.33
2022-07-29T12:00:49.023Z,33.39
2022-07-29T12:02:18.469Z,33.43
2022-07-29T12:03:33.581Z,33.55
2022-07-29T12:04:50.102Z,33.60
2022-07-29T12:05:52.080Z,33.63
2022-07-29T12:06:54.413Z,33.69
2022-07-29T12:07:56.033Z,33.67
2022-07-29T12:08:58.058Z,33.67
2022-07-29T12:09:59.985Z,33.65
2022-07-29T12:11:01.663Z,33.72
2022-07-29T12:12:05.598Z,33.78
2022-07-29T12:13:07.572Z,33.87
2022-07-29T12:14:11.235Z,33.90
2022-07-29T12:15:22.265Z,33.84
2022-07-29T12:16:29.204Z,33.86
2022-07-29T12:17:32.879Z,33.90
2022-07-29T12:18:34.952Z,33.92
2022-07-29T12:19:46.246Z,33.90
2022-07-29T12:20:48.929Z,33.86
2022-07-29T12:21:56.249Z,33.86
2022-07-29T12:22:58.376Z,33.89
2022-07-29T12:24:09.315Z,33.92
2022-07-29T12:26:35.038Z,33.78
2022-07-29T12:27:40.462Z,33.76
2022-07-29T12:28:42.362Z,33.56
2022-07-29T12:30:02.287Z,33.56
2022-07-29T12:31:04.033Z,33.53
2022-07-29T12:32:14.494Z,33.50
2022-07-29T12:33:22.323Z,33.59
2022-07-29T12:34:24.597Z,33.62
2022-07-29T12:35:26.672Z,33.65
2022-07-29T12:36:28.282Z,33.62
2022-07-29T12:37:40.662Z,33.59
2022-07-29T12:38:44.257Z,33.62
2022-07-29T12:39:46.413Z,33.57
2022-07-29T12:40:48.632Z,33.56
2022-07-29T12:41:50.257Z,33.59
2022-07-29T12:43:11.542Z,33.56
2022-07-29T12:44:13.214Z,33.45
2022-07-29T12:45:14.835Z,33.49
2022-07-29T12:46:16.596Z,33.53
2022-07-29T12:47:19.259Z,33.57
2022-07-29T12:48:34.922Z,33.70
2022-07-29T12:49:37.990Z,33.80
2022-07-29T12:50:58.564Z,33.81
2022-07-29T12:52:01.380Z,33.74
2022-07-29T12:53:12.844Z,33.76
2022-07-29T12:54:15.422Z,33.76
2022-07-29T12:55:17.194Z,33.80
2022-07-29T12:56:42.714Z,33.77
2022-07-29T12:57:51.676Z,33.72
2022-07-29T12:58:53.291Z,33.81
2022-07-29T13:00:11.713Z,33.92
2022-07-29T13:01:17.191Z,33.93
2022-07-29T13:02:23.507Z,33.90
2022-07-29T13:03:25.174Z,33.83
2022-07-29T13:04:31.260Z,33.76
2022-07-29T13:05:49.107Z,33.70
2022-07-29T13:06:51.285Z,33.56
2022-07-29T13:07:55.090Z,33.59
2022-07-29T13:09:10.698Z,33.59
2022-07-29T13:10:13.308Z,33.57
2022-07-29T13:11:34.556Z,33.50
2022-07-29T13:12:36.936Z,33.39
2022-07-29T13:14:06.494Z,33.36
2022-07-29T13:15:15.843Z,33.36
2022-07-29T13:16:17.560Z,33.33
2022-07-29T13:17:21.820Z,33.39
2022-07-29T13:18:34.581Z,33.42
2022-07-29T13:19:43.937Z,33.53
2022-07-29T13:20:45.535Z,33.57
2022-07-29T13:21:47.140Z,33.62
2022-07-29T13:22:49.059Z,33.63
2022-07-29T13:23:50.657Z,33.62
2022-07-29T13:24:53.936Z,33.67
2022-07-29T13:25:55.604Z,33.69
2022-07-29T13:26:57.281Z,33.67
2022-07-29T13:27:59.842Z,33.69
2022-07-29T13:29:01.446Z,33.74
2022-07-29T13:30:04.841Z,33.72
2022-07-29T13:31:06.713Z,33.73
2022-07-29T13:32:08.485Z,33.76
2022-07-29T13:33:10.185Z,33.77
2022-07-29T13:34:12.015Z,33.80
2022-07-29T13:35:14.406Z,33.77
2022-07-29T13:36:15.999Z,33.74
2022-07-29T13:37:17.969Z,33.80
2022-07-29T13:38:19.990Z,33.86
2022-07-29T13:39:21.591Z,33.90
2022-07-29T13:40:23.238Z,33.86
2022-07-29T13:41:24.843Z,33.83
2022-07-29T13:42:27.659Z,33.80
2022-07-29T13:43:29.338Z,33.81
2022-07-29T13:44:30.973Z,33.80
2022-07-29T13:45:32.647Z,33.78
2022-07-29T13:46:34.240Z,33.80
2022-07-29T13:47:36.102Z,33.77
2022-07-29T13:48:37.827Z,33.72
2022-07-29T13:49:39.469Z,33.66
2022-07-29T13:50:41.126Z,33.70
2022-07-29T13:51:42.742Z,33.70
2022-07-29T13:52:44.524Z,33.73
2022-07-29T13:53:46.179Z,33.77
2022-07-29T13:54:47.809Z,33.80
2022-07-29T13:55:49.456Z,33.87
2022-07-29T13:56:51.840Z,33.80
2022-07-29T13:57:53.456Z,33.84
2022-07-29T13:58:55.105Z,33.80